Ship Status Report: callsign CUID4

sailwx.info

Track history (hours):
 
Tides and Currents Weather Stations Pressure Air Temp Water Temp Dewpoint Dewpoint Depression Visibility Wind Speed Wind Dir Waves Ship Positions

Callsign CUID4 (name unknown)

Last reported at 2017-Sep-28 01:04 UTC. Time now 2017-Dec-17 21:46 UTC.
Position N 39°20' W 009°26'.
Warning: this ship's position is months out of date.

AWS

Date/timePositionNaut miles runAvg speedWind from/ knotsBaromVisibWave heightAir tempDewpointWater temp
2017-Sep-28 01:04N 39°20' W 009°26'1 7.8
2017-Sep-28 01:00N 39°20' W 009°26'34 0.7
2017-Sep-26 01:29N 39°11' W 010°09'6 7.3
2017-Sep-26 00:41N 39°13' W 010°02'2 8.0
2017-Sep-26 00:25N 39°14' W 009°59'3 8.1
2017-Sep-26 00:00N 39°15' W 009°55'4 8.0
2017-Sep-25 23:30N 39°16' W 009°50'4 7.8
2017-Sep-25 22:57N 39°17' W 009°45'4 7.8
2017-Sep-25 22:30N 39°17' W 009°40'4 7.7
2017-Sep-25 22:00N 39°18' W 009°35'  
2017-Sep-20 20:00N 39°22' W 009°25'  
Track history (hours):
 
Tides and Currents Weather Stations Pressure Air Temp Water Temp Dewpoint Dewpoint Depression Visibility Wind Speed Wind Dir Waves Ship Positions

Callsign CUID4 (name unknown)

Last reported at 2017-Sep-28 01:04 UTC. Time now 2017-Dec-17 21:46 UTC.
Position N 39°20' W 009°26'.
Warning: this ship's position is months out of date.

AWS

Date/timePositionNaut miles runAvg speedWind from/ knotsBaromVisibWave heightAir tempDewpointWater temp
2017-Sep-28 01:04N 39°20' W 009°26'1 7.8
2017-Sep-28 01:00N 39°20' W 009°26'34 0.7
2017-Sep-26 01:29N 39°11' W 010°09'6 7.3
2017-Sep-26 00:41N 39°13' W 010°02'2 8.0
2017-Sep-26 00:25N 39°14' W 009°59'3 8.1
2017-Sep-26 00:00N 39°15' W 009°55'4 8.0
2017-Sep-25 23:30N 39°16' W 009°50'4 7.8
2017-Sep-25 22:57N 39°17' W 009°45'4 7.8
2017-Sep-25 22:30N 39°17' W 009°40'4 7.7
2017-Sep-25 22:00N 39°18' W 009°35'  
2017-Sep-20 20:00N 39°22' W 009°25'  

Dump ship's entire track history